Silverthorne, CO

12:54 PM MST on February 08, 2016 (GMT -0700)
Kremmling

Weather History for K20V - July, 2013

Change the Weather History Date:

Monday, July 1, 2013

  Actual Average (KEGE) Record (KEGE)
Temperature  
Mean Temperature 60 °F -  
Max Temperature 80 °F 85 °F 96 °F (1990)
Min Temperature 41 °F 44 °F 29 °F (1968)
Degree Days  
Heating Degree Days 4    
Growing Degree Days 10 (Base 50)    
Moisture  
Dew Point 38 °F    
Average Humidity 49    
Maximum Humidity 87    
Minimum Humidity 16    
Precipitation  
Precipitation 0.00 in - - ()
Sea Level Pressure  
Sea Level Pressure 30.40 in    
Wind  
Wind Speed 3 mph (ENE)    
Max Wind Speed 16 mph    
Max Gust Speed 26 mph    
Visibility 10 miles    
Events Thunderstorm    
Averages and records for this station are not official NWS values.
T = Trace of Precipitation, MM = Missing Value Source: NWS Daily Summary

Daily Weather History Graph

Daily Weather History Graph

Search for Another Location

Airport or City:

Trip Planner

Search our weather history database for the weather conditions in past years. The results will help you decide how hot, cold, wet, or windy it might be!

Date:

Astronomy

Jul. 01, 2013 Rise Set
Actual Time 5:40 AM MDT 8:38 PM MDT
Civil Twilight 5:07 AM MDT 9:10 PM MDT
Nautical Twilight 4:26 AM MDT 9:52 PM MDT
Astronomical Twilight 3:37 AM MDT 10:40 PM MDT
Moon 1:11 AM MDT (7/1) 2:56 PM MDT (7/1)
Length of Visible Light 16h 03m
Length of Day
14h 57m
Waning Crescent, 35% of the Moon is Illuminated
Jul 1
Waning Crescent
Jul 8
New
Jul 15
First Quarter
Jul 22
Full
Jul 29
Last Quarter

Hourly Weather History & Observations

Time (MDT) Temp. Windchill Dew Point Humidity Pressure Visibility Wind Dir Wind Speed Gust Speed Precip Events Conditions
12:16 AM 51.8 °F - 42.8 °F 71% 30.41 in 10.0 mi Calm Calm - N/A   Clear
12:36 AM 50.0 °F - 42.8 °F 76% 30.41 in 10.0 mi Calm Calm - N/A   Clear
12:56 AM 50.0 °F - 42.8 °F 76% 30.42 in 10.0 mi Calm Calm - N/A   Clear
1:16 AM 50.0 °F - 42.8 °F 76% 30.42 in 10.0 mi East 6.9 mph - N/A   Clear
1:36 AM 50.0 °F - 42.8 °F 76% 30.42 in 10.0 mi ESE 4.6 mph - N/A   Clear
1:56 AM 50.0 °F - 42.8 °F 76% 30.43 in 10.0 mi Calm Calm - N/A   Clear
2:16 AM 50.0 °F - 42.8 °F 76% 30.42 in 10.0 mi Calm Calm - N/A   Clear
2:35 AM 46.4 °F 45.2 °F 41.0 °F 81% 30.43 in 10.0 mi East 3.5 mph - N/A   Clear
2:55 AM 46.4 °F - 41.0 °F 81% 30.42 in 10.0 mi Calm Calm - N/A   Clear
3:16 AM 44.6 °F - 41.0 °F 87% 30.42 in 10.0 mi Calm Calm - N/A   Clear
3:36 AM 44.6 °F - 41.0 °F 87% 30.43 in 10.0 mi Calm Calm - N/A   Clear
3:55 AM 44.6 °F - 41.0 °F 87% 30.43 in 10.0 mi Calm Calm - N/A   Clear
4:16 AM 42.8 °F - 37.4 °F 81% 30.44 in 10.0 mi Calm Calm - N/A   Clear
4:36 AM 42.8 °F - 37.4 °F 81% 30.44 in 10.0 mi Calm Calm - N/A   Clear
4:56 AM 41.0 °F - 37.4 °F 87% 30.44 in 10.0 mi Calm Calm - N/A   Clear
5:16 AM 41.0 °F - 37.4 °F 87% 30.45 in 10.0 mi Calm Calm - N/A   Clear
5:35 AM 42.8 °F - 37.4 °F 81% 30.46 in 10.0 mi Calm Calm - N/A   Clear
5:56 AM 41.0 °F - 37.4 °F 87% 30.47 in 10.0 mi Calm Calm - N/A   Clear
6:16 AM 41.0 °F - 37.4 °F 87% 30.47 in 10.0 mi Calm Calm - N/A   Clear
6:36 AM 42.8 °F - 39.2 °F 87% 30.48 in 10.0 mi Calm Calm - N/A   Clear
6:55 AM 46.4 °F - 41.0 °F 81% 30.48 in 10.0 mi Calm Calm - N/A   Clear
7:16 AM 48.2 °F - 42.8 °F 82% 30.48 in 10.0 mi Calm Calm - N/A   Clear
7:35 AM 50.0 °F - 41.0 °F 71% 30.48 in 10.0 mi Calm Calm - N/A   Clear
7:55 AM 51.8 °F - 42.8 °F 71% 30.48 in 10.0 mi Calm Calm - N/A   Clear
8:16 AM 51.8 °F - 41.0 °F 67% 30.48 in 10.0 mi Calm Calm - N/A   Clear
8:36 AM 53.6 °F - 41.0 °F 62% 30.48 in 10.0 mi Calm Calm - N/A   Clear
8:56 AM 55.4 °F - 42.8 °F 63% 30.47 in 10.0 mi Calm Calm - N/A   Clear
9:15 AM 55.4 °F - 41.0 °F 58% 30.47 in 10.0 mi Calm Calm - N/A   Clear
9:36 AM 60.8 °F - 42.8 °F 52% 30.46 in 10.0 mi Calm Calm - N/A   Clear
9:55 AM 60.8 °F - 42.8 °F 52% 30.45 in 10.0 mi Calm Calm - N/A   Clear
10:16 AM 64.4 °F - 42.8 °F 45% 30.44 in 10.0 mi Calm Calm - N/A   Clear
10:36 AM 66.2 °F - 42.8 °F 43% 30.44 in 10.0 mi Calm Calm - N/A   Clear
10:56 AM 69.8 °F - 44.6 °F 40% 30.43 in 10.0 mi Calm Calm - N/A   Clear
11:16 AM 69.8 °F - 41.0 °F 35% 30.42 in 10.0 mi Calm Calm - N/A   Clear
11:35 AM 71.6 °F - 42.8 °F 35% 30.41 in 10.0 mi NW 3.5 mph - N/A   Clear
11:56 AM 73.4 °F - 37.4 °F 27% 30.40 in 10.0 mi South 4.6 mph - N/A   Clear
12:16 PM 77.0 °F - 37.4 °F 24% 30.39 in 10.0 mi SSW 9.2 mph - N/A   Clear
12:36 PM 77.0 °F - 35.6 °F 22% 30.38 in 10.0 mi SSE 8.1 mph - N/A   Clear
12:56 PM 78.8 °F - 33.8 °F 20% 30.38 in 10.0 mi South 5.8 mph - N/A   Clear
1:16 PM 78.8 °F - 30.2 °F 17% 30.36 in 10.0 mi WSW 3.5 mph 16.1 mph N/A   Scattered Clouds
1:36 PM 77.0 °F - 33.8 °F 21% 30.37 in 10.0 mi ENE 16.1 mph 26.5 mph N/A   Scattered Clouds
1:56 PM 78.8 °F - 32.0 °F 18% 30.36 in 10.0 mi ESE 9.2 mph 16.1 mph N/A   Scattered Clouds
2:16 PM 78.8 °F - 32.0 °F 18% 30.35 in 10.0 mi SE 11.5 mph - N/A   Scattered Clouds
2:36 PM 78.8 °F - 30.2 °F 17% 30.35 in 10.0 mi ESE 9.2 mph - N/A   Mostly Cloudy
2:55 PM 78.8 °F - 32.0 °F 18% 30.34 in 10.0 mi ENE 6.9 mph - N/A   Mostly Cloudy
3:16 PM 78.8 °F - 30.2 °F 17% 30.34 in 10.0 mi East 8.1 mph - N/A   Scattered Clouds
3:35 PM 78.8 °F - 32.0 °F 18% 30.34 in 10.0 mi ENE 9.2 mph - N/A   Mostly Cloudy
3:56 PM 78.8 °F - 32.0 °F 18% 30.34 in 10.0 mi East 12.7 mph - N/A   Mostly Cloudy
4:16 PM 75.2 °F - 35.6 °F 24% 30.35 in 10.0 mi ESE 8.1 mph - N/A Thunderstorm Mostly Cloudy
4:35 PM 77.0 °F - 33.8 °F 21% 30.35 in 10.0 mi NE 8.1 mph - N/A   Scattered Clouds
4:55 PM 77.0 °F - 33.8 °F 21% 30.34 in 10.0 mi NE 15.0 mph 19.6 mph N/A   Mostly Cloudy
5:16 PM 80.6 °F - 32.0 °F 17% 30.34 in 10.0 mi NNE 12.7 mph 17.3 mph N/A   Scattered Clouds
5:36 PM 78.8 °F - 32.0 °F 18% 30.33 in 10.0 mi NNE 6.9 mph 18.4 mph N/A   Clear
5:56 PM 80.6 °F - 30.2 °F 16% 30.32 in 10.0 mi NW 10.4 mph 18.4 mph N/A   Clear
6:16 PM 77.0 °F - 32.0 °F 19% 30.33 in 10.0 mi NNW 8.1 mph - N/A   Scattered Clouds
6:35 PM 77.0 °F - 32.0 °F 19% 30.33 in 10.0 mi NNE 8.1 mph - N/A   Scattered Clouds
6:56 PM 77.0 °F - 35.6 °F 22% 30.34 in 10.0 mi NE 12.7 mph 16.1 mph N/A   Clear
7:16 PM 77.0 °F - 35.6 °F 22% 30.34 in 10.0 mi NNE 9.2 mph - N/A   Scattered Clouds
7:36 PM 77.0 °F - 33.8 °F 21% 30.34 in 10.0 mi North 4.6 mph - N/A   Clear
7:56 PM 77.0 °F - 35.6 °F 22% 30.34 in 10.0 mi NNE 8.1 mph - N/A   Clear
8:16 PM 73.4 °F - 35.6 °F 25% 30.36 in 10.0 mi NE 6.9 mph - N/A   Clear
8:36 PM 69.8 °F - 35.6 °F 28% 30.36 in 10.0 mi East 5.8 mph - N/A   Clear
8:56 PM 68.0 °F - 41.0 °F 37% 30.36 in 10.0 mi ENE 6.9 mph - N/A   Clear
9:15 PM 66.2 °F - 41.0 °F 40% 30.37 in 10.0 mi Calm Calm - N/A   Clear
9:36 PM 62.6 °F - 41.0 °F 45% 30.38 in 10.0 mi Calm Calm - N/A   Clear
9:56 PM 62.6 °F - 42.8 °F 48% 30.39 in 10.0 mi Calm Calm - N/A   Clear
10:16 PM 60.8 °F - 41.0 °F 48% 30.40 in 10.0 mi NE 3.5 mph - N/A Thunderstorm Clear
10:36 PM 59.0 °F - 42.8 °F 55% 30.41 in 10.0 mi Calm Calm - N/A   Clear
10:56 PM 59.0 °F - 42.8 °F 55% 30.41 in 10.0 mi Calm Calm - N/A   Clear
11:15 PM 60.8 °F - 42.8 °F 52% 30.41 in 10.0 mi ESE 3.5 mph - N/A   Clear
11:35 PM 57.2 °F - 42.8 °F 59% 30.41 in 10.0 mi Calm Calm - N/A   Clear
11:56 PM 55.4 °F - 42.8 °F 63% 30.41 in 10.0 mi Calm Calm - N/A   Clear